createdAt,value
2022-10-22T00:03:36.958Z,7.18
2022-10-22T00:07:39.342Z,4.22
2022-10-22T00:11:42.517Z,4.55
2022-10-22T00:15:44.239Z,6.43
2022-10-22T00:19:46.012Z,5.93
2022-10-22T00:23:48.080Z,6.18
2022-10-22T00:27:49.816Z,5.40
2022-10-22T00:31:51.851Z,5.70
2022-10-22T00:35:53.648Z,3.05
2022-10-22T00:39:55.323Z,4.63
2022-10-22T00:44:05.659Z,5.32
2022-10-22T00:48:27.217Z,4.78
2022-10-22T00:52:29.143Z,5.05
2022-10-22T00:56:30.993Z,4.75
2022-10-22T01:00:32.963Z,5.43
2022-10-22T01:04:34.738Z,4.88
2022-10-22T01:08:51.840Z,4.03
2022-10-22T01:13:21.100Z,3.88
2022-10-22T01:23:21.245Z,3.40
2022-10-22T01:27:42.900Z,5.38
2022-10-22T01:31:54.403Z,4.15
2022-10-22T01:35:57.483Z,4.03
2022-10-22T01:40:00.940Z,3.45
2022-10-22T01:44:02.684Z,5.32
2022-10-22T01:48:35.521Z,5.00
2022-10-22T01:52:58.307Z,6.15
2022-10-22T01:57:22.501Z,4.45
2022-10-22T02:01:32.959Z,4.60
2022-10-22T02:05:40.880Z,6.82
2022-10-22T02:09:44.775Z,8.80
2022-10-22T02:13:51.269Z,7.63
2022-10-22T02:17:55.295Z,7.05
2022-10-22T02:21:57.102Z,7.60
2022-10-22T02:26:10.275Z,5.05
2022-10-22T02:34:26.116Z,12.65
2022-10-22T02:38:29.183Z,10.90
2022-10-22T02:42:30.965Z,13.25
2022-10-22T02:46:33.140Z,10.27
2022-10-22T02:50:34.877Z,13.52
2022-10-22T02:54:36.656Z,9.82
2022-10-22T02:58:38.408Z,6.20
2022-10-22T03:02:40.482Z,4.57
2022-10-22T03:06:45.469Z,5.53
2022-10-22T03:10:47.626Z,4.80
2022-10-22T03:14:49.826Z,6.95
2022-10-22T03:18:51.764Z,5.03
2022-10-22T03:22:53.772Z,5.95
2022-10-22T03:26:56.249Z,5.22
2022-10-22T03:30:58.191Z,4.32
2022-10-22T03:39:08.209Z,5.03
2022-10-22T03:43:11.290Z,4.07
2022-10-22T03:47:14.539Z,4.53
2022-10-22T03:51:16.277Z,6.43
2022-10-22T03:55:18.015Z,5.47
2022-10-22T03:59:19.818Z,7.55
2022-10-22T04:03:21.508Z,6.50
2022-10-22T04:07:23.277Z,4.50
2022-10-22T04:11:25.044Z,7.70
2022-10-22T04:15:28.185Z,7.65
2022-10-22T04:19:30.034Z,4.72
2022-10-22T04:23:31.734Z,9.15
2022-10-22T04:27:34.378Z,11.90
2022-10-22T04:31:36.062Z,12.23
2022-10-22T04:35:39.902Z,11.40
2022-10-22T04:39:41.698Z,11.63
2022-10-22T04:43:44.043Z,8.57
2022-10-22T04:47:45.754Z,10.52
2022-10-22T04:51:47.445Z,8.77
2022-10-22T04:55:49.145Z,9.68
2022-10-22T04:59:50.860Z,9.18
2022-10-22T05:03:54.492Z,10.40
2022-10-22T05:07:56.198Z,14.20
2022-10-22T05:11:57.894Z,10.45
2022-10-22T05:16:02.157Z,11.43
2022-10-22T05:20:05.299Z,13.75
2022-10-22T05:24:07.454Z,10.48
2022-10-22T05:28:09.215Z,8.02
2022-10-22T05:32:10.915Z,8.68
2022-10-22T05:36:15.364Z,16.40
2022-10-22T05:40:26.899Z,19.40
2022-10-22T05:44:32.541Z,21.38
2022-10-22T05:48:35.091Z,20.35
2022-10-22T05:52:36.852Z,20.98
2022-10-22T05:56:38.577Z,21.20
2022-10-22T06:00:40.653Z,21.48
2022-10-22T06:04:42.437Z,17.48
2022-10-22T06:08:45.897Z,18.23
2022-10-22T06:12:48.250Z,19.10
2022-10-22T06:16:50.633Z,22.52
2022-10-22T06:20:52.361Z,10.80
2022-10-22T06:24:54.080Z,11.80
2022-10-22T06:28:56.843Z,12.15
2022-10-22T06:32:58.588Z,17.00
2022-10-22T06:37:00.351Z,14.98
2022-10-22T06:41:06.375Z,16.35
2022-10-22T06:45:08.987Z,13.70
2022-10-22T06:49:14.214Z,12.07
2022-10-22T06:53:16.085Z,9.65
2022-10-22T06:57:17.891Z,8.95
2022-10-22T07:01:22.769Z,8.57
2022-10-22T07:05:24.576Z,11.15
2022-10-22T07:09:26.364Z,6.45
2022-10-22T07:13:28.070Z,5.78
2022-10-22T07:17:29.827Z,4.55
2022-10-22T07:21:32.103Z,3.38
2022-10-22T07:25:33.816Z,10.30
2022-10-22T07:29:35.608Z,6.53
2022-10-22T07:33:37.695Z,6.10
2022-10-22T07:37:39.914Z,4.38
2022-10-22T07:41:41.847Z,3.63
2022-10-22T07:45:43.530Z,4.40
2022-10-22T07:49:45.221Z,4.72
2022-10-22T07:53:46.944Z,4.85
2022-10-22T07:57:48.572Z,3.65
2022-10-22T08:01:50.246Z,7.45
2022-10-22T08:05:52.314Z,8.35
2022-10-22T08:09:53.970Z,9.75
2022-10-22T08:13:55.626Z,9.60
2022-10-22T08:17:57.330Z,8.48
2022-10-22T08:21:59.533Z,12.07
2022-10-22T08:26:02.981Z,6.78
2022-10-22T08:30:06.035Z,8.25
2022-10-22T08:34:08.385Z,5.68
2022-10-22T08:38:10.052Z,4.05
2022-10-22T08:42:30.387Z,3.85
2022-10-22T08:46:56.740Z,3.28
2022-10-22T08:50:58.479Z,3.45
2022-10-22T08:55:02.322Z,4.28
2022-10-22T08:59:30.527Z,4.35
2022-10-22T09:03:44.292Z,3.33
2022-10-22T09:07:50.224Z,2.47
2022-10-22T09:11:52.947Z,1.38
2022-10-22T09:16:01.629Z,3.63
2022-10-22T09:20:13.516Z,12.10
2022-10-22T09:24:41.940Z,12.38
2022-10-22T09:28:44.016Z,4.78
2022-10-22T09:32:46.181Z,2.20
2022-10-22T09:36:47.866Z,1.90
2022-10-22T09:40:51.875Z,1.40
2022-10-22T09:44:56.375Z,1.60
2022-10-22T09:49:13.318Z,2.80
2022-10-22T09:53:21.832Z,3.42
2022-10-22T09:57:25.021Z,3.80
2022-10-22T10:01:31.831Z,1.75
2022-10-22T10:05:37.608Z,1.95
2022-10-22T10:09:39.523Z,1.60
2022-10-22T10:13:52.680Z,1.35
2022-10-22T10:18:00.958Z,1.50
2022-10-22T10:22:13.982Z,1.13
2022-10-22T10:26:39.958Z,1.30
2022-10-22T10:31:12.416Z,1.30
2022-10-22T10:35:16.967Z,2.17
2022-10-22T10:39:29.151Z,3.88
2022-10-22T10:43:51.940Z,2.22
2022-10-22T10:48:00.814Z,1.30
2022-10-22T10:52:26.202Z,1.83
2022-10-22T10:56:41.819Z,6.18
2022-10-22T11:01:15.856Z,1.23
2022-10-22T11:05:42.074Z,1.00
2022-10-22T11:09:57.325Z,1.20
2022-10-22T11:14:07.734Z,0.90
2022-10-22T11:18:28.973Z,1.20
2022-10-22T11:22:37.274Z,1.42
2022-10-22T11:26:52.149Z,1.25
2022-10-22T11:31:01.603Z,4.07
2022-10-22T11:35:07.385Z,1.98
2022-10-22T11:39:30.544Z,1.10
2022-10-22T11:43:49.034Z,1.40
2022-10-22T11:47:58.548Z,1.10
2022-10-22T11:52:22.713Z,1.33
2022-10-22T11:56:36.684Z,1.00
2022-10-22T12:00:48.888Z,1.92
2022-10-22T12:04:51.009Z,1.00
2022-10-22T12:09:04.727Z,1.25
2022-10-22T12:13:24.476Z,0.80
2022-10-22T12:17:28.643Z,3.13
2022-10-22T12:21:33.893Z,1.30
2022-10-22T12:25:36.589Z,1.50
2022-10-22T12:29:38.271Z,2.15
2022-10-22T12:33:39.916Z,3.50
2022-10-22T12:37:41.845Z,0.93
2022-10-22T12:41:44.483Z,1.75
2022-10-22T12:45:48.645Z,1.80
2022-10-22T12:49:50.814Z,1.00
2022-10-22T12:53:54.663Z,1.20
2022-10-22T12:57:56.342Z,1.08
2022-10-22T13:01:58.946Z,0.60
2022-10-22T13:06:18.701Z,0.80
2022-10-22T13:10:25.751Z,1.10
2022-10-22T13:14:37.461Z,0.75
2022-10-22T13:18:39.145Z,0.70
2022-10-22T13:22:53.033Z,0.60
2022-10-22T13:26:55.301Z,0.70
2022-10-22T13:31:00.289Z,1.02
2022-10-22T13:35:03.651Z,0.70
2022-10-22T13:39:08.871Z,1.40
2022-10-22T13:43:10.543Z,0.60
2022-10-22T13:47:22.223Z,1.05
2022-10-22T13:51:27.978Z,1.30
2022-10-22T13:55:30.707Z,0.63
2022-10-22T13:59:32.375Z,0.93
2022-10-22T14:03:37.220Z,1.35
2022-10-22T14:07:39.650Z,3.97
2022-10-22T14:11:41.680Z,2.28
2022-10-22T14:15:46.384Z,1.20
2022-10-22T14:19:49.213Z,1.63
2022-10-22T14:23:52.715Z,0.60
2022-10-22T14:27:54.768Z,0.80
2022-10-22T14:31:56.501Z,0.75
2022-10-22T14:36:01.790Z,0.95
2022-10-22T14:40:03.949Z,0.50
2022-10-22T14:44:05.615Z,1.45
2022-10-22T14:48:08.269Z,1.13
2022-10-22T14:52:12.899Z,0.60
2022-10-22T14:56:21.328Z,1.55
2022-10-22T15:00:23.178Z,0.52
2022-10-22T15:04:27.002Z,1.33
2022-10-22T15:08:29.177Z,0.80
2022-10-22T15:12:30.917Z,2.80
2022-10-22T15:16:32.619Z,1.17
2022-10-22T15:20:34.365Z,1.63
2022-10-22T15:24:36.947Z,0.80
2022-10-22T15:28:39.727Z,0.60
2022-10-22T15:32:41.597Z,0.52
2022-10-22T15:36:43.405Z,1.30
2022-10-22T15:40:45.359Z,0.60
2022-10-22T15:44:47.103Z,0.57
2022-10-22T15:48:48.746Z,0.93
2022-10-22T15:52:50.460Z,2.47
2022-10-22T15:56:52.263Z,0.90
2022-10-22T16:00:54.016Z,2.78
2022-10-22T16:04:55.701Z,0.65
2022-10-22T16:08:59.504Z,0.60
2022-10-22T16:13:01.259Z,0.63
2022-10-22T16:17:02.957Z,0.70
2022-10-22T16:21:04.859Z,1.85
2022-10-22T16:25:07.115Z,1.20
2022-10-22T16:29:11.431Z,1.02
2022-10-22T16:33:13.121Z,0.77
2022-10-22T16:37:14.769Z,0.82
2022-10-22T16:41:21.270Z,1.88
2022-10-22T16:45:22.991Z,3.97
2022-10-22T16:49:24.693Z,3.70
2022-10-22T16:53:26.401Z,2.10
2022-10-22T16:57:28.941Z,2.00
2022-10-22T17:01:30.766Z,1.95
2022-10-22T17:05:36.041Z,1.63
2022-10-22T17:09:37.727Z,3.25
2022-10-22T17:13:42.493Z,1.65
2022-10-22T17:17:48.307Z,1.55
2022-10-22T17:21:51.243Z,3.35
2022-10-22T17:25:58.873Z,1.80
2022-10-22T17:30:00.582Z,2.33
2022-10-22T17:34:02.326Z,2.50
2022-10-22T17:38:04.013Z,3.08
2022-10-22T17:42:06.209Z,2.75
2022-10-22T17:46:13.288Z,2.88
2022-10-22T17:54:16.752Z,2.40
2022-10-22T17:58:18.444Z,3.55
2022-10-22T18:02:20.576Z,2.88
2022-10-22T18:06:23.084Z,2.35
2022-10-22T18:10:24.878Z,1.80
2022-10-22T18:14:26.564Z,2.53
2022-10-22T18:18:28.670Z,3.35
2022-10-22T18:22:32.182Z,3.47
2022-10-22T18:26:33.881Z,2.58
2022-10-22T18:30:38.097Z,2.90
2022-10-22T18:34:39.997Z,3.05
2022-10-22T18:38:41.915Z,3.05
2022-10-22T18:42:44.978Z,1.77
2022-10-22T18:46:46.911Z,2.20
2022-10-22T18:51:08.507Z,1.52
2022-10-22T18:55:10.151Z,1.83
2022-10-22T18:59:17.890Z,1.67
2022-10-22T19:03:19.567Z,5.03
2022-10-22T19:07:21.263Z,3.67
2022-10-22T19:11:23.519Z,3.45
2022-10-22T19:15:25.242Z,2.42
2022-10-22T19:19:27.397Z,2.40
2022-10-22T19:23:30.502Z,2.13
2022-10-22T19:27:32.183Z,3.47
2022-10-22T19:31:36.080Z,2.97
2022-10-22T19:35:37.767Z,1.63
2022-10-22T19:39:39.459Z,1.88
2022-10-22T19:43:43.145Z,2.10
2022-10-22T19:47:44.812Z,2.15
2022-10-22T19:51:46.556Z,1.73
2022-10-22T19:55:48.326Z,1.60
2022-10-22T19:59:50.046Z,1.40
2022-10-22T20:03:52.430Z,1.17
2022-10-22T20:07:54.098Z,1.70
2022-10-22T20:11:55.780Z,4.63
2022-10-22T20:15:57.576Z,4.40
2022-10-22T20:19:59.639Z,3.25
2022-10-22T20:24:01.828Z,3.85
2022-10-22T20:28:03.637Z,2.08
2022-10-22T20:32:08.061Z,1.63
2022-10-22T20:36:16.028Z,1.38
2022-10-22T20:44:19.492Z,1.40
2022-10-22T20:48:21.741Z,1.92
2022-10-22T20:52:23.451Z,1.73
2022-10-22T20:56:26.407Z,2.97
2022-10-22T21:00:28.285Z,1.40
2022-10-22T21:04:30.741Z,1.58
2022-10-22T21:08:32.811Z,2.00
2022-10-22T21:12:34.708Z,2.33
2022-10-22T21:16:39.742Z,2.63
2022-10-22T21:20:41.921Z,3.55
2022-10-22T21:24:44.072Z,4.03
2022-10-22T21:28:46.107Z,2.13
2022-10-22T21:32:47.838Z,2.35
2022-10-22T21:36:49.585Z,2.55
2022-10-22T21:40:51.873Z,1.75
2022-10-22T21:44:53.617Z,1.50
2022-10-22T21:48:56.595Z,2.42
2022-10-22T21:52:58.326Z,4.22
2022-10-22T21:57:00.053Z,2.83
2022-10-22T22:01:03.127Z,1.90
2022-10-22T22:05:05.152Z,1.85
2022-10-22T22:09:07.315Z,2.53
2022-10-22T22:13:09.208Z,1.67
2022-10-22T22:17:11.152Z,2.83
2022-10-22T22:21:15.769Z,1.95
2022-10-22T22:25:17.572Z,1.55
2022-10-22T22:29:19.697Z,1.90
2022-10-22T22:33:21.838Z,2.53
2022-10-22T22:37:23.713Z,2.35
2022-10-22T22:41:25.582Z,1.85
2022-10-22T22:45:27.353Z,1.50
2022-10-22T22:49:29.068Z,2.03
2022-10-22T22:53:31.140Z,1.95
2022-10-22T22:57:33.170Z,2.08
2022-10-22T23:01:41.392Z,3.05
2022-10-22T23:05:43.201Z,2.00
2022-10-22T23:09:45.194Z,1.63
2022-10-22T23:13:47.709Z,2.03
2022-10-22T23:17:49.438Z,1.63
2022-10-22T23:21:53.922Z,1.42
2022-10-22T23:25:56.042Z,1.65
2022-10-22T23:29:58.035Z,2.53
2022-10-22T23:34:00.366Z,2.60
2022-10-22T23:38:02.116Z,1.30
2022-10-22T23:42:03.913Z,1.48
2022-10-22T23:46:07.985Z,2.22
2022-10-22T23:50:09.806Z,3.90
2022-10-22T23:54:14.320Z,1.70
2022-10-22T23:58:17.302Z,1.60
